createdAt,value
2023-04-18T00:00:28.336Z,10.75
2023-04-18T00:05:30.093Z,11.98
2023-04-18T00:10:32.813Z,10.98
2023-04-18T00:15:37.409Z,11.10
2023-04-18T00:20:39.282Z,13.30
2023-04-18T00:25:40.978Z,12.07
2023-04-18T00:30:42.633Z,12.98
2023-04-18T00:35:44.423Z,12.80
2023-04-18T00:40:46.085Z,13.35
2023-04-18T00:45:47.661Z,12.55
2023-04-18T00:50:49.476Z,14.27
2023-04-18T00:55:51.421Z,13.07
2023-04-18T01:00:54.708Z,13.38
2023-04-18T01:05:57.506Z,15.10
2023-04-18T01:11:00.045Z,14.60
2023-04-18T01:16:01.750Z,13.98
2023-04-18T01:21:06.380Z,15.23
2023-04-18T01:26:08.228Z,14.02
2023-04-18T01:31:09.996Z,14.93
2023-04-18T01:36:11.688Z,14.55
2023-04-18T01:41:13.373Z,16.55
2023-04-18T01:46:17.303Z,14.90
2023-04-18T01:51:18.945Z,14.23
2023-04-18T01:56:20.973Z,13.82
2023-04-18T02:01:22.899Z,14.43
2023-04-18T02:06:24.651Z,13.30
2023-04-18T02:11:26.343Z,15.60
2023-04-18T02:16:28.188Z,13.93
2023-04-18T02:21:30.729Z,14.75
2023-04-18T02:26:32.425Z,14.25
2023-04-18T02:31:34.089Z,14.02
2023-04-18T02:36:35.894Z,13.93
2023-04-18T02:41:39.346Z,13.75
2023-04-18T02:46:41.075Z,13.50
2023-04-18T02:51:46.929Z,12.68
2023-04-18T02:56:49.375Z,13.60
2023-04-18T03:02:14.065Z,13.20
2023-04-18T03:07:23.016Z,14.37
2023-04-18T03:12:26.389Z,13.90
2023-04-18T03:17:28.639Z,13.95
2023-04-18T03:22:30.546Z,14.77
2023-04-18T03:27:33.985Z,13.70
2023-04-18T03:32:36.550Z,14.32
2023-04-18T03:37:38.535Z,14.90
2023-04-18T03:42:40.848Z,15.13
2023-04-18T03:47:42.516Z,14.60
2023-04-18T03:52:44.700Z,14.20
2023-04-18T03:57:47.553Z,13.57
2023-04-18T04:02:56.888Z,12.52
2023-04-18T04:07:58.942Z,13.15
2023-04-18T04:13:00.876Z,14.07
2023-04-18T04:18:06.207Z,13.55
2023-04-18T04:23:10.452Z,13.52
2023-04-18T04:28:14.551Z,13.88
2023-04-18T04:33:33.234Z,13.30
2023-04-18T04:38:38.497Z,13.93
2023-04-18T04:43:41.293Z,13.82
2023-04-18T04:48:44.041Z,13.73
2023-04-18T04:53:45.803Z,12.80
2023-04-18T04:58:47.724Z,12.68
2023-04-18T05:04:00.613Z,12.77
2023-04-18T05:09:02.406Z,12.18
2023-04-18T05:14:04.065Z,13.60
2023-04-18T05:19:05.927Z,13.32
2023-04-18T05:24:08.009Z,12.75
2023-04-18T05:29:09.865Z,13.07
2023-04-18T05:34:11.787Z,12.52
2023-04-18T05:39:14.108Z,12.48
2023-04-18T05:44:17.014Z,11.88
2023-04-18T05:49:19.732Z,11.98
2023-04-18T05:54:21.717Z,11.48
2023-04-18T05:59:23.577Z,11.90
2023-04-18T06:04:25.599Z,12.45
2023-04-18T06:09:27.357Z,13.35
2023-04-18T06:14:29.473Z,12.68
2023-04-18T06:19:31.414Z,12.00
2023-04-18T06:24:33.282Z,12.73
2023-04-18T06:29:36.206Z,12.10
2023-04-18T06:34:40.757Z,11.05
2023-04-18T06:39:44.767Z,12.23
2023-04-18T06:44:46.621Z,12.25
2023-04-18T06:49:48.314Z,11.15
2023-04-18T06:54:49.862Z,12.38
2023-04-18T06:59:51.473Z,11.57
2023-04-18T07:04:53.139Z,13.68
2023-04-18T07:09:55.017Z,13.48
2023-04-18T07:14:56.611Z,12.82
2023-04-18T07:19:58.576Z,12.00
2023-04-18T07:25:00.382Z,11.05
2023-04-18T07:30:02.778Z,13.40
2023-04-18T07:35:04.882Z,12.90
2023-04-18T07:40:07.058Z,11.55
2023-04-18T07:45:08.936Z,12.95
2023-04-18T07:50:10.979Z,11.82
2023-04-18T07:55:12.546Z,12.65
2023-04-18T08:00:14.798Z,12.93
2023-04-18T08:05:16.607Z,11.82
2023-04-18T08:10:18.257Z,11.70
2023-04-18T08:15:22.011Z,13.25
2023-04-18T08:20:23.697Z,11.63
2023-04-18T08:25:25.324Z,12.50
2023-04-18T08:30:26.949Z,10.73
2023-04-18T08:35:28.545Z,12.73
2023-04-18T08:40:30.441Z,12.57
2023-04-18T08:45:33.434Z,12.40
2023-04-18T08:50:35.275Z,11.38
2023-04-18T08:55:37.500Z,12.13
2023-04-18T09:00:39.502Z,12.13
2023-04-18T09:06:04.254Z,11.05
2023-04-18T09:11:29.415Z,10.88
2023-04-18T09:16:47.092Z,11.68
2023-04-18T09:21:58.116Z,11.50
2023-04-18T09:27:01.368Z,12.30
2023-04-18T09:32:03.375Z,13.63
2023-04-18T09:37:14.971Z,13.00
2023-04-18T09:42:17.323Z,12.20
2023-04-18T09:47:18.884Z,11.98
2023-04-18T09:52:21.275Z,12.65
2023-04-18T09:57:27.434Z,12.00
2023-04-18T10:02:35.354Z,11.70
2023-04-18T10:07:38.179Z,11.48
2023-04-18T10:12:41.653Z,11.20
2023-04-18T10:18:03.588Z,11.90
2023-04-18T10:23:35.079Z,11.95
2023-04-18T10:28:53.151Z,12.80
2023-04-18T10:39:21.141Z,10.75
2023-04-18T10:44:23.562Z,11.23
2023-04-18T10:49:28.323Z,11.48
2023-04-18T10:54:42.126Z,11.85
2023-04-18T10:59:48.053Z,11.20
2023-04-18T11:04:56.022Z,11.73
2023-04-18T11:09:57.644Z,11.27
2023-04-18T11:15:01.398Z,12.20
2023-04-18T11:20:08.720Z,11.45
2023-04-18T11:25:10.891Z,11.95
2023-04-18T11:30:13.770Z,11.70
2023-04-18T11:35:16.086Z,10.70
2023-04-18T11:40:17.759Z,9.52
2023-04-18T11:45:19.380Z,10.10
2023-04-18T11:50:20.984Z,10.25
2023-04-18T11:55:25.139Z,10.10
2023-04-18T12:00:34.505Z,11.05
2023-04-18T12:05:39.026Z,10.07
2023-04-18T12:10:49.084Z,9.77
2023-04-18T12:20:54.248Z,10.18
2023-04-18T12:26:01.289Z,10.32
2023-04-18T12:31:05.888Z,10.00
2023-04-18T12:36:08.631Z,10.98
2023-04-18T12:41:10.218Z,10.32
2023-04-18T12:46:11.811Z,10.23
2023-04-18T12:51:13.588Z,10.00
2023-04-18T12:56:15.488Z,9.10
2023-04-18T13:01:17.218Z,9.75
2023-04-18T13:06:18.891Z,9.95
2023-04-18T13:11:22.417Z,9.57
2023-04-18T13:16:24.049Z,9.77
2023-04-18T13:21:26.000Z,7.82
2023-04-18T13:26:27.594Z,8.30
2023-04-18T13:31:29.515Z,8.32
2023-04-18T13:36:31.774Z,8.20
2023-04-18T13:41:35.970Z,7.97
2023-04-18T13:46:37.610Z,6.85
2023-04-18T13:51:39.268Z,7.70
2023-04-18T13:56:41.848Z,7.30
2023-04-18T14:01:43.502Z,6.50
2023-04-18T14:06:45.831Z,6.15
2023-04-18T14:11:48.621Z,6.40
2023-04-18T14:16:50.294Z,6.30
2023-04-18T14:21:51.906Z,6.18
2023-04-18T14:26:53.493Z,5.55
2023-04-18T14:31:55.039Z,5.97
2023-04-18T14:36:56.622Z,5.43
2023-04-18T14:41:58.178Z,5.72
2023-04-18T14:46:59.799Z,5.97
2023-04-18T14:52:01.502Z,4.95
2023-04-18T14:57:03.062Z,5.43
2023-04-18T15:02:04.909Z,5.25
2023-04-18T15:07:06.913Z,5.47
2023-04-18T15:12:08.534Z,5.43
2023-04-18T15:17:10.095Z,4.85
2023-04-18T15:22:11.878Z,5.22
2023-04-18T15:27:13.527Z,5.18
2023-04-18T15:32:15.214Z,6.00
2023-04-18T15:37:16.922Z,5.07
2023-04-18T15:42:18.662Z,5.10
2023-04-18T15:47:20.690Z,5.22
2023-04-18T15:52:22.272Z,5.25
2023-04-18T15:57:23.951Z,4.95
2023-04-18T16:02:26.324Z,5.40
2023-04-18T16:07:27.897Z,4.93
2023-04-18T16:12:29.648Z,4.88
2023-04-18T16:17:31.315Z,4.70
2023-04-18T16:22:32.914Z,4.70
2023-04-18T16:27:34.455Z,4.43
2023-04-18T16:32:38.078Z,5.00
2023-04-18T16:37:40.450Z,5.45
2023-04-18T16:42:42.014Z,4.38
2023-04-18T16:47:43.604Z,4.63
2023-04-18T16:52:45.299Z,4.70
2023-04-18T16:57:46.829Z,4.90
2023-04-18T17:07:51.776Z,4.75
2023-04-18T17:12:53.695Z,4.60
2023-04-18T17:17:56.516Z,4.70
2023-04-18T17:22:58.148Z,4.70
2023-04-18T17:28:02.167Z,5.00
2023-04-18T17:33:03.875Z,5.00
2023-04-18T17:38:05.426Z,5.25
2023-04-18T17:43:06.943Z,4.90
2023-04-18T17:48:08.536Z,4.72
2023-04-18T17:53:11.983Z,6.35
2023-04-18T17:58:13.566Z,5.35
2023-04-18T18:03:16.040Z,4.55
2023-04-18T18:08:17.709Z,5.22
2023-04-18T18:13:19.314Z,5.72
2023-04-18T18:18:21.085Z,6.30
2023-04-18T18:23:23.245Z,6.32
2023-04-18T18:28:24.934Z,5.78
2023-04-18T18:33:26.549Z,6.10
2023-04-18T18:38:28.098Z,5.30
2023-04-18T18:43:29.618Z,5.97
2023-04-18T18:48:34.172Z,5.07
2023-04-18T18:53:37.202Z,5.75
2023-04-18T18:58:40.476Z,6.18
2023-04-18T19:03:42.555Z,5.82
2023-04-18T19:08:44.294Z,5.97
2023-04-18T19:13:45.907Z,5.93
2023-04-18T19:18:49.193Z,6.53
2023-04-18T19:23:50.741Z,6.10
2023-04-18T19:28:52.873Z,6.18
2023-04-18T19:33:54.401Z,6.63
2023-04-18T19:38:55.911Z,6.13
2023-04-18T19:43:57.455Z,6.30
2023-04-18T19:48:59.033Z,6.57
2023-04-18T19:54:00.653Z,6.43
2023-04-18T19:59:02.466Z,5.97
2023-04-18T20:04:04.327Z,7.63
2023-04-18T20:09:06.321Z,6.72
2023-04-18T20:14:08.121Z,7.57
2023-04-18T20:19:12.682Z,7.32
2023-04-18T20:24:15.590Z,7.10
2023-04-18T20:29:17.194Z,7.82
2023-04-18T20:34:19.058Z,7.32
2023-04-18T20:39:20.600Z,7.97
2023-04-18T20:44:22.281Z,8.32
2023-04-18T20:49:23.878Z,8.20
2023-04-18T20:54:25.635Z,8.82
2023-04-18T20:59:27.202Z,7.95
2023-04-18T21:04:29.446Z,9.45
2023-04-18T21:09:36.313Z,8.70
2023-04-18T21:14:39.705Z,9.25
2023-04-18T21:19:41.257Z,9.77
2023-04-18T21:24:43.937Z,9.50
2023-04-18T21:29:48.694Z,9.60
2023-04-18T21:34:50.337Z,9.77
2023-04-18T21:39:52.192Z,10.30
2023-04-18T21:44:54.864Z,9.90
2023-04-18T21:49:56.548Z,10.55
2023-04-18T21:54:59.251Z,10.10
2023-04-18T22:00:00.772Z,10.85
2023-04-18T22:05:02.962Z,11.80
2023-04-18T22:10:06.043Z,11.10
2023-04-18T22:15:08.078Z,11.20
2023-04-18T22:20:10.822Z,10.65
2023-04-18T22:25:12.407Z,10.52
2023-04-18T22:30:14.353Z,10.10
2023-04-18T22:35:16.167Z,10.40
2023-04-18T22:40:17.969Z,11.48
2023-04-18T22:45:19.765Z,10.90
2023-04-18T22:50:21.338Z,10.43
2023-04-18T22:55:23.005Z,10.57
2023-04-18T23:00:24.566Z,10.88
2023-04-18T23:05:26.223Z,11.38
2023-04-18T23:10:28.151Z,11.60
2023-04-18T23:15:29.878Z,11.15
2023-04-18T23:20:31.633Z,11.88
2023-04-18T23:25:33.607Z,12.05
2023-04-18T23:30:36.821Z,11.60
2023-04-18T23:35:38.397Z,11.93
2023-04-18T23:40:39.915Z,12.30
2023-04-18T23:45:41.413Z,12.63
2023-04-18T23:50:46.296Z,12.57
2023-04-18T23:55:50.604Z,12.93
